createdAt,value
2019-01-05T00:00:00.368Z,102.37
2019-01-05T00:00:59.947Z,102.44
2019-01-05T00:02:00.197Z,102.90
2019-01-05T00:03:00.945Z,102.92
2019-01-05T00:04:01.538Z,102.95
2019-01-05T00:05:02.178Z,103.21
2019-01-05T00:06:03.860Z,103.38
2019-01-05T00:07:04.557Z,103.38
2019-01-05T00:08:04.095Z,103.23
2019-01-05T00:09:04.502Z,103.23
2019-01-05T00:10:06.114Z,103.30
2019-01-05T00:11:06.827Z,103.29
2019-01-05T00:12:07.402Z,103.10
2019-01-05T00:13:07.415Z,103.35
2019-01-05T00:14:08.154Z,103.37
2019-01-05T00:15:07.698Z,103.24
2019-01-05T00:16:09.481Z,103.02
2019-01-05T00:17:09.571Z,102.67
2019-01-05T00:18:10.303Z,102.36
2019-01-05T00:19:10.982Z,102.18
2019-01-05T00:20:11.558Z,102.36
2019-01-05T00:21:11.622Z,102.20
2019-01-05T00:22:12.134Z,102.58
2019-01-05T00:22:23.518Z,102.93
2019-01-05T00:23:23.911Z,102.97
2019-01-05T00:24:25.873Z,102.99
2019-01-05T00:25:29.650Z,102.99
2019-01-05T00:26:26.331Z,102.94
2019-01-05T00:27:26.927Z,102.73
2019-01-05T00:28:28.951Z,102.91
2019-01-05T00:29:27.967Z,103.12
2019-01-05T00:30:29.868Z,103.40
2019-01-05T00:31:30.425Z,103.47
2019-01-05T00:32:30.037Z,104.05
2019-01-05T00:33:34.125Z,103.96
2019-01-05T00:34:31.729Z,103.75
2019-01-05T00:35:33.433Z,103.75
2019-01-05T00:36:34.064Z,103.88
2019-01-05T00:37:33.957Z,104.20
2019-01-05T00:38:34.126Z,104.45
2019-01-05T00:39:42.278Z,104.57
2019-01-05T00:40:37.689Z,104.42
2019-01-05T00:41:36.048Z,104.61
2019-01-05T00:42:37.686Z,104.68
2019-01-05T00:43:37.525Z,104.82
2019-01-05T00:44:38.537Z,104.97
2019-01-05T00:45:38.636Z,104.87
2019-01-05T00:46:39.133Z,104.89
2019-01-05T00:47:41.026Z,104.77
2019-01-05T00:48:40.662Z,104.77
2019-01-05T00:49:42.236Z,104.95
2019-01-05T00:50:42.792Z,105.16
2019-01-05T00:51:43.644Z,104.98
2019-01-05T00:52:44.233Z,104.66
2019-01-05T00:53:44.920Z,104.92
2019-01-05T00:54:46.925Z,104.94
2019-01-05T00:55:45.112Z,104.61
2019-01-05T00:56:46.792Z,104.86
2019-01-05T00:57:47.313Z,105.02
2019-01-05T00:58:47.922Z,105.02
2019-01-05T00:59:48.446Z,104.96
2019-01-05T01:00:48.983Z,105.05
2019-01-05T01:01:49.487Z,105.27
2019-01-05T01:02:50.401Z,105.12
2019-01-05T01:03:51.037Z,105.09
2019-01-05T01:04:51.156Z,104.87
2019-01-05T01:05:51.219Z,104.46
2019-01-05T01:06:51.294Z,104.10
2019-01-05T01:07:52.954Z,103.74
2019-01-05T01:08:52.701Z,103.68
2019-01-05T01:09:53.226Z,103.51
2019-01-05T01:10:53.727Z,103.66
2019-01-05T01:11:54.293Z,103.95
2019-01-05T01:12:54.994Z,104.14
2019-01-05T01:13:55.627Z,104.75
2019-01-05T01:14:56.324Z,105.13
2019-01-05T01:15:56.923Z,104.92
2019-01-05T01:16:57.543Z,104.71
2019-01-05T01:17:57.003Z,104.83
2019-01-05T01:18:58.508Z,104.85
2019-01-05T01:20:00.307Z,104.89
2019-01-05T01:20:08.749Z,105.05
2019-01-05T01:21:10.226Z,105.08
2019-01-05T01:22:10.827Z,105.31
2019-01-05T01:23:10.959Z,105.40
2019-01-05T01:24:11.508Z,105.20
2019-01-05T01:25:11.558Z,105.40
2019-01-05T01:26:12.038Z,105.59
2019-01-05T01:27:12.864Z,105.38
2019-01-05T01:28:13.486Z,105.54
2019-01-05T01:29:13.999Z,105.31
2019-01-05T01:30:14.680Z,105.65
2019-01-05T01:31:14.772Z,105.93
2019-01-05T01:32:15.403Z,105.97
2019-01-05T01:33:16.009Z,106.01
2019-01-05T01:34:16.647Z,106.04
2019-01-05T01:35:17.362Z,105.91
2019-01-05T01:36:18.060Z,105.78
2019-01-05T01:37:18.818Z,105.87
2019-01-05T01:38:19.388Z,105.94
2019-01-05T01:39:20.324Z,106.24
2019-01-05T01:40:21.094Z,106.28
2019-01-05T01:41:21.567Z,106.29
2019-01-05T01:42:22.413Z,106.31
2019-01-05T01:43:23.143Z,106.37
2019-01-05T01:44:23.970Z,106.37
2019-01-05T01:45:24.556Z,106.27
2019-01-05T01:46:25.116Z,105.95
2019-01-05T01:47:25.840Z,105.81
2019-01-05T01:48:26.331Z,105.77
2019-01-05T01:49:26.984Z,105.73
2019-01-05T01:50:27.531Z,105.59
2019-01-05T01:51:28.144Z,105.57
2019-01-05T01:52:28.725Z,105.33
2019-01-05T01:53:29.406Z,105.56
2019-01-05T01:54:30.113Z,105.83
2019-01-05T01:55:30.933Z,105.85
2019-01-05T01:56:31.599Z,106.10
2019-01-05T01:57:32.162Z,106.15
2019-01-05T01:58:32.659Z,106.20
2019-01-05T01:59:33.135Z,106.02
2019-01-05T02:00:33.696Z,106.06
2019-01-05T02:01:34.334Z,106.01
2019-01-05T02:02:34.955Z,106.15
2019-01-05T02:03:35.574Z,106.30
2019-01-05T02:04:36.139Z,106.34
2019-01-05T02:05:36.848Z,106.36
2019-01-05T02:05:45.799Z,106.42
2019-01-05T02:06:46.642Z,106.43
2019-01-05T02:07:47.151Z,106.35
2019-01-05T02:08:47.907Z,106.33
2019-01-05T02:09:48.497Z,106.30
2019-01-05T02:10:49.175Z,106.29
2019-01-05T02:11:49.935Z,106.24
2019-01-05T02:12:50.451Z,106.05
2019-01-05T02:13:51.081Z,106.04
2019-01-05T02:14:51.601Z,106.10
2019-01-05T02:15:52.144Z,106.18
2019-01-05T02:16:52.834Z,106.10
2019-01-05T02:17:53.468Z,106.14
2019-01-05T02:18:54.121Z,106.23
2019-01-05T02:19:54.879Z,105.76
2019-01-05T02:20:55.483Z,105.30
2019-01-05T02:21:56.100Z,105.15
2019-01-05T02:22:56.731Z,105.50
2019-01-05T02:23:57.191Z,105.39
2019-01-05T02:24:57.739Z,105.49
2019-01-05T02:25:58.587Z,105.42
2019-01-05T02:26:59.124Z,105.55
2019-01-05T02:27:59.779Z,105.57
2019-01-05T02:29:00.266Z,105.58
2019-01-05T02:30:01.229Z,105.77
2019-01-05T02:31:02.010Z,105.66
2019-01-05T02:32:03.571Z,105.81
2019-01-05T02:33:03.460Z,105.67
2019-01-05T02:34:03.987Z,105.49
2019-01-05T02:35:04.658Z,105.37
2019-01-05T02:36:04.716Z,105.32
2019-01-05T02:37:05.156Z,105.61
2019-01-05T02:38:05.934Z,105.56
2019-01-05T02:39:06.447Z,105.10
2019-01-05T02:40:07.033Z,104.88
2019-01-05T02:41:07.684Z,105.34
2019-01-05T02:42:07.766Z,105.30
2019-01-05T02:43:08.457Z,105.20
2019-01-05T02:44:08.960Z,105.29
2019-01-05T02:45:09.478Z,105.43
2019-01-05T02:46:10.176Z,105.15
2019-01-05T02:47:11.135Z,104.90
2019-01-05T02:48:12.028Z,104.92
2019-01-05T02:49:12.552Z,105.09
2019-01-05T02:49:20.628Z,105.24
2019-01-05T02:50:22.290Z,105.20
2019-01-05T02:51:22.876Z,105.35
2019-01-05T02:52:23.487Z,105.39
2019-01-05T02:53:23.851Z,105.38
2019-01-05T02:54:24.501Z,105.30
2019-01-05T02:55:25.068Z,105.26
2019-01-05T02:56:25.746Z,105.28
2019-01-05T02:57:26.212Z,105.23
2019-01-05T02:58:26.399Z,104.79
2019-01-05T02:59:27.079Z,104.87
2019-01-05T03:00:27.821Z,104.74
2019-01-05T03:01:28.620Z,104.73
2019-01-05T03:02:29.171Z,104.80
2019-01-05T03:03:29.715Z,105.09
2019-01-05T03:04:30.339Z,105.22
2019-01-05T03:05:30.832Z,105.26
2019-01-05T03:06:31.150Z,105.46
2019-01-05T03:07:31.587Z,105.66
2019-01-05T03:08:32.257Z,105.77
2019-01-05T03:09:32.857Z,105.78
2019-01-05T03:10:33.329Z,105.50
2019-01-05T03:11:32.871Z,105.27
2019-01-05T03:12:34.620Z,105.13
2019-01-05T03:13:34.656Z,105.16
2019-01-05T03:14:35.105Z,105.10
2019-01-05T03:15:35.534Z,104.86
2019-01-05T03:16:36.309Z,104.59
2019-01-05T03:17:36.937Z,104.56
2019-01-05T03:18:36.947Z,104.70
2019-01-05T03:19:37.833Z,104.96
2019-01-05T03:20:38.642Z,104.73
2019-01-05T03:21:39.281Z,104.60
2019-01-05T03:22:38.733Z,103.87
2019-01-05T03:23:40.285Z,104.13
2019-01-05T03:24:40.865Z,104.03
2019-01-05T03:25:41.384Z,104.05
2019-01-05T03:26:42.265Z,103.91
2019-01-05T03:27:42.812Z,104.01
2019-01-05T03:28:43.411Z,104.21
2019-01-05T03:29:44.011Z,104.22
2019-01-05T03:30:44.506Z,104.12
2019-01-05T03:31:45.067Z,104.19
2019-01-05T03:32:45.688Z,103.84
2019-01-05T03:33:46.366Z,103.78
2019-01-05T03:34:47.245Z,103.94
2019-01-05T03:35:47.835Z,103.85
2019-01-05T03:35:56.330Z,104.04
2019-01-05T03:36:57.756Z,104.05
2019-01-05T03:37:58.248Z,104.19
2019-01-05T03:38:58.791Z,104.24
2019-01-05T03:39:59.255Z,104.50
2019-01-05T03:40:59.862Z,104.75
2019-01-05T03:41:59.633Z,104.90
2019-01-05T03:43:01.498Z,104.93
2019-01-05T03:44:02.342Z,105.00
2019-01-05T03:45:02.860Z,105.00
2019-01-05T03:46:03.385Z,105.04
2019-01-05T03:47:03.916Z,104.96
2019-01-05T03:48:04.461Z,104.91
2019-01-05T03:49:04.952Z,104.78
2019-01-05T03:50:05.518Z,104.51
2019-01-05T03:51:06.515Z,104.36
2019-01-05T03:52:07.096Z,104.26
2019-01-05T03:53:07.519Z,104.16
2019-01-05T03:54:08.292Z,104.21
2019-01-05T03:55:08.803Z,104.31
2019-01-05T03:56:09.597Z,104.23
2019-01-05T03:57:10.187Z,104.34
2019-01-05T03:58:11.072Z,104.48
2019-01-05T03:59:11.612Z,104.53
2019-01-05T04:00:12.178Z,104.37
2019-01-05T04:01:12.882Z,104.34
2019-01-05T04:02:13.508Z,104.04
2019-01-05T04:03:13.515Z,103.36
2019-01-05T04:04:14.187Z,103.32
2019-01-05T04:05:15.109Z,103.16
2019-01-05T04:06:15.804Z,103.27
2019-01-05T04:07:16.364Z,103.48
2019-01-05T04:08:16.798Z,103.11
2019-01-05T04:09:17.339Z,103.31
2019-01-05T04:10:17.829Z,103.47
2019-01-05T04:11:18.321Z,103.41
2019-01-05T04:12:18.784Z,103.53
2019-01-05T04:13:19.302Z,103.31
2019-01-05T04:14:19.781Z,102.91
2019-01-05T04:15:20.320Z,102.55
2019-01-05T04:16:20.860Z,102.44
2019-01-05T04:17:21.521Z,101.95
2019-01-05T04:18:22.090Z,102.17
2019-01-05T04:19:22.614Z,101.79
2019-01-05T04:20:23.255Z,101.90
2019-01-05T04:21:23.754Z,101.99
2019-01-05T04:21:32.182Z,101.95
2019-01-05T04:22:33.080Z,101.95
2019-01-05T04:23:33.588Z,101.84
2019-01-05T04:24:34.205Z,101.74
2019-01-05T04:25:34.779Z,102.18
2019-01-05T04:26:35.386Z,102.49
2019-01-05T04:27:36.100Z,102.84
2019-01-05T04:28:36.658Z,102.56
2019-01-05T04:29:37.122Z,102.59
2019-01-05T04:30:37.547Z,102.21
2019-01-05T04:31:38.087Z,102.34
2019-01-05T04:32:38.757Z,102.53
2019-01-05T04:33:39.550Z,102.34
2019-01-05T04:34:40.153Z,102.76
2019-01-05T04:35:40.805Z,102.52
2019-01-05T04:36:41.411Z,102.58
2019-01-05T04:37:41.920Z,102.84
2019-01-05T04:38:42.534Z,102.73
2019-01-05T04:39:43.111Z,102.38
2019-01-05T04:40:43.695Z,102.34
2019-01-05T04:41:44.441Z,102.37
2019-01-05T04:42:44.986Z,102.17
2019-01-05T04:43:45.620Z,102.04
2019-01-05T04:44:46.172Z,101.44
2019-01-05T04:45:47.013Z,101.88
2019-01-05T04:46:47.553Z,101.48
2019-01-05T04:47:48.127Z,101.31
2019-01-05T04:48:48.727Z,101.07
2019-01-05T04:49:49.322Z,100.98
2019-01-05T04:50:49.774Z,100.88
2019-01-05T04:51:49.562Z,101.24
2019-01-05T04:52:51.076Z,101.60
2019-01-05T04:53:50.237Z,101.48
2019-01-05T04:54:51.686Z,100.83
2019-01-05T04:55:52.289Z,100.71
2019-01-05T04:56:52.767Z,100.68
2019-01-05T04:57:53.527Z,100.75
2019-01-05T04:58:53.990Z,100.94
2019-01-05T04:59:54.760Z,101.27
2019-01-05T05:00:54.875Z,100.98
2019-01-05T05:01:55.663Z,100.52
2019-01-05T05:02:56.195Z,100.81
2019-01-05T05:03:56.919Z,100.82
2019-01-05T05:04:57.521Z,100.61
2019-01-05T05:05:58.033Z,100.68
2019-01-05T05:06:59.011Z,100.39
2019-01-05T05:07:08.957Z,100.40
2019-01-05T05:08:10.434Z,100.42
2019-01-05T05:09:10.985Z,100.70
2019-01-05T05:10:11.651Z,100.49
2019-01-05T05:11:12.167Z,100.53
2019-01-05T05:12:12.635Z,100.61
2019-01-05T05:13:13.211Z,100.55
2019-01-05T05:14:13.744Z,100.58
2019-01-05T05:15:14.419Z,100.99
2019-01-05T05:16:15.159Z,100.73
2019-01-05T05:17:15.892Z,100.81
2019-01-05T05:18:16.424Z,100.91
2019-01-05T05:19:16.443Z,100.65
2019-01-05T05:20:17.205Z,100.63
2019-01-05T05:21:17.764Z,100.23
2019-01-05T05:22:18.355Z,100.24
2019-01-05T05:23:18.839Z,100.09
2019-01-05T05:24:19.313Z,99.87
2019-01-05T05:25:20.020Z,99.90
2019-01-05T05:26:20.628Z,100.02
2019-01-05T05:27:21.050Z,99.94
2019-01-05T05:28:21.666Z,100.24
2019-01-05T05:29:22.166Z,100.00
2019-01-05T05:30:22.572Z,99.66
2019-01-05T05:31:23.215Z,99.85
2019-01-05T05:32:23.924Z,99.71
2019-01-05T05:33:24.627Z,99.72
2019-01-05T05:34:25.139Z,100.00
2019-01-05T05:35:25.643Z,99.95
2019-01-05T05:36:25.962Z,100.32
2019-01-05T05:37:26.544Z,100.62
2019-01-05T05:38:27.007Z,100.79
2019-01-05T05:39:27.619Z,100.48
2019-01-05T05:40:28.033Z,100.35
2019-01-05T05:41:29.589Z,100.74
2019-01-05T05:42:29.177Z,100.67
2019-01-05T05:43:29.749Z,101.30
2019-01-05T05:44:30.289Z,101.16
2019-01-05T05:45:30.926Z,100.99
2019-01-05T05:46:31.585Z,101.28
2019-01-05T05:47:32.169Z,101.51
2019-01-05T05:48:32.976Z,101.53
2019-01-05T05:49:33.460Z,101.85
2019-01-05T05:50:34.112Z,101.62
2019-01-05T05:50:42.458Z,101.55
2019-01-05T05:51:43.864Z,101.51
2019-01-05T05:52:44.576Z,101.42
2019-01-05T05:53:45.242Z,101.74
2019-01-05T05:54:45.716Z,101.83
2019-01-05T05:55:46.398Z,102.12
2019-01-05T05:56:46.936Z,102.33
2019-01-05T05:57:47.393Z,102.38
2019-01-05T05:58:47.880Z,102.67
2019-01-05T05:59:48.636Z,102.69
2019-01-05T06:00:49.200Z,102.84
2019-01-05T06:01:49.951Z,102.26
2019-01-05T06:02:50.553Z,102.70
2019-01-05T06:03:51.325Z,103.17
2019-01-05T06:04:51.945Z,103.12
2019-01-05T06:05:52.503Z,103.41
2019-01-05T06:06:52.757Z,103.41
2019-01-05T06:07:53.118Z,103.62
2019-01-05T06:08:53.736Z,103.69
2019-01-05T06:09:54.528Z,103.78
2019-01-05T06:10:55.192Z,103.72
2019-01-05T06:11:56.182Z,103.70
2019-01-05T06:12:56.977Z,103.90
2019-01-05T06:13:57.637Z,104.24
2019-01-05T06:14:58.563Z,104.39
2019-01-05T06:15:58.992Z,104.45
2019-01-05T06:16:59.919Z,104.43
2019-01-05T06:18:00.582Z,104.06
2019-01-05T06:19:01.076Z,103.95
2019-01-05T06:20:01.646Z,103.86
2019-01-05T06:21:02.087Z,103.90
2019-01-05T06:22:02.649Z,104.01
2019-01-05T06:23:03.383Z,104.44
2019-01-05T06:24:04.013Z,104.41
2019-01-05T06:25:04.103Z,104.43
2019-01-05T06:26:04.753Z,104.64
2019-01-05T06:27:05.611Z,104.57
2019-01-05T06:28:06.346Z,104.31
2019-01-05T06:29:06.903Z,104.27
2019-01-05T06:30:07.503Z,104.26
2019-01-05T06:31:08.174Z,104.11
2019-01-05T06:32:08.703Z,104.27
2019-01-05T06:33:09.257Z,104.41
2019-01-05T06:34:08.788Z,104.45
2019-01-05T06:35:10.498Z,104.46
2019-01-05T06:36:10.501Z,104.32
2019-01-05T06:36:21.469Z,104.21
2019-01-05T06:37:21.961Z,104.19
2019-01-05T06:38:22.746Z,104.23
2019-01-05T06:39:23.361Z,104.35
2019-01-05T06:40:23.750Z,104.49
2019-01-05T06:41:24.251Z,104.56
2019-01-05T06:42:24.955Z,104.69
2019-01-05T06:43:25.771Z,104.88
2019-01-05T06:44:26.400Z,104.95
2019-01-05T06:45:27.231Z,105.02
2019-01-05T06:46:28.041Z,105.27
2019-01-05T06:47:28.572Z,105.22
2019-01-05T06:48:29.107Z,105.16
2019-01-05T06:49:29.603Z,105.14
2019-01-05T06:50:30.121Z,105.14
2019-01-05T06:51:30.595Z,105.21
2019-01-05T06:52:31.420Z,105.27
2019-01-05T06:53:31.871Z,105.39
2019-01-05T06:54:32.656Z,105.32
2019-01-05T06:55:33.135Z,105.35
2019-01-05T06:56:33.679Z,105.34
2019-01-05T06:57:34.340Z,105.44
2019-01-05T06:58:34.867Z,105.46
2019-01-05T06:59:35.502Z,105.47
2019-01-05T07:00:36.111Z,105.41
2019-01-05T07:01:36.714Z,105.25
2019-01-05T07:02:37.210Z,105.23
2019-01-05T07:03:36.736Z,105.20
2019-01-05T07:04:38.487Z,105.16
2019-01-05T07:05:39.062Z,105.04
2019-01-05T07:06:39.621Z,104.99
2019-01-05T07:07:40.149Z,105.44
2019-01-05T07:08:40.688Z,105.87
2019-01-05T07:09:41.505Z,105.91
2019-01-05T07:10:41.920Z,105.71
2019-01-05T07:11:42.460Z,105.77
2019-01-05T07:12:43.256Z,105.73
2019-01-05T07:13:43.769Z,105.29
2019-01-05T07:14:44.404Z,105.27
2019-01-05T07:15:44.851Z,104.91
2019-01-05T07:16:45.346Z,104.66
2019-01-05T07:17:45.911Z,104.72
2019-01-05T07:18:46.431Z,104.69
2019-01-05T07:19:46.937Z,104.68
2019-01-05T07:20:47.357Z,104.75
2019-01-05T07:21:48.136Z,104.71
2019-01-05T07:21:56.534Z,104.39
2019-01-05T07:22:57.272Z,104.38
2019-01-05T07:23:57.781Z,104.25
2019-01-05T07:24:58.541Z,104.10
2019-01-05T07:25:59.304Z,103.58
2019-01-05T07:26:59.752Z,103.54
2019-01-05T07:28:00.177Z,103.95
2019-01-05T07:29:00.748Z,104.09
2019-01-05T07:30:01.175Z,104.25
2019-01-05T07:31:01.711Z,104.22
2019-01-05T07:32:02.131Z,103.37
2019-01-05T07:33:02.856Z,103.08
2019-01-05T07:34:03.338Z,102.88
2019-01-05T07:35:03.724Z,102.97
2019-01-05T07:36:04.165Z,102.76
2019-01-05T07:37:04.711Z,102.81
2019-01-05T07:38:05.198Z,103.25
2019-01-05T07:39:05.969Z,103.47
2019-01-05T07:40:06.493Z,103.09
2019-01-05T07:41:07.008Z,102.63
2019-01-05T07:42:07.838Z,102.64
2019-01-05T07:43:08.408Z,102.73
2019-01-05T07:44:09.190Z,102.57
2019-01-05T07:45:09.778Z,102.14
2019-01-05T07:46:10.318Z,102.31
2019-01-05T07:47:11.830Z,102.34
2019-01-05T07:48:11.291Z,102.07
2019-01-05T07:49:11.813Z,102.12
2019-01-05T07:50:12.244Z,102.53
2019-01-05T07:51:12.899Z,102.31
2019-01-05T07:52:13.570Z,102.11
2019-01-05T07:53:14.003Z,102.06
2019-01-05T07:54:14.497Z,102.10
2019-01-05T07:55:15.480Z,102.26
2019-01-05T07:56:16.110Z,101.93
2019-01-05T07:57:16.795Z,101.48
2019-01-05T07:58:17.733Z,101.58
2019-01-05T07:59:18.172Z,101.61
2019-01-05T08:00:18.712Z,101.98
2019-01-05T08:01:19.139Z,102.16
2019-01-05T08:02:18.285Z,102.20
2019-01-05T08:03:20.005Z,102.36
2019-01-05T08:04:20.566Z,102.16
2019-01-05T08:05:21.326Z,102.08
2019-01-05T08:06:21.761Z,102.19
2019-01-05T08:07:22.230Z,102.06
2019-01-05T08:08:23.128Z,102.19
2019-01-05T08:09:04.786Z,101.85
2019-01-05T08:10:05.530Z,101.85
2019-01-05T08:11:06.114Z,101.46
2019-01-05T08:12:06.681Z,100.78
2019-01-05T08:13:07.001Z,100.55
2019-01-05T08:14:07.557Z,100.19
2019-01-05T08:15:08.290Z,100.55
2019-01-05T08:16:09.810Z,100.63
2019-01-05T08:17:09.758Z,100.18
2019-01-05T08:18:10.307Z,100.40
2019-01-05T08:19:11.082Z,100.61
2019-01-05T08:20:11.963Z,100.56
2019-01-05T08:21:12.623Z,100.57
2019-01-05T08:22:13.415Z,100.84
2019-01-05T08:23:13.999Z,100.86
2019-01-05T08:24:14.577Z,101.04
2019-01-05T08:25:15.458Z,100.93
2019-01-05T08:26:16.032Z,100.98
2019-01-05T08:27:16.634Z,100.66
2019-01-05T08:28:16.083Z,100.55
2019-01-05T08:29:17.635Z,100.53
2019-01-05T08:30:18.096Z,100.71
2019-01-05T08:31:18.608Z,100.85
2019-01-05T08:32:19.101Z,100.77
2019-01-05T08:33:19.620Z,100.20
2019-01-05T08:34:20.352Z,100.06
2019-01-05T08:35:20.906Z,100.06
2019-01-05T08:36:21.477Z,99.60
2019-01-05T08:37:22.094Z,99.44
2019-01-05T08:38:22.619Z,99.66
2019-01-05T08:39:23.180Z,100.17
2019-01-05T08:40:23.239Z,100.52
2019-01-05T08:41:23.852Z,100.70
2019-01-05T08:42:24.671Z,101.12
2019-01-05T08:43:23.972Z,100.76
2019-01-05T08:44:25.529Z,100.80
2019-01-05T08:45:26.056Z,101.10
2019-01-05T08:46:26.319Z,101.45
2019-01-05T08:47:25.908Z,101.48
2019-01-05T08:48:27.620Z,101.10
2019-01-05T08:49:28.094Z,101.03
2019-01-05T08:50:28.567Z,101.00
2019-01-05T08:51:29.142Z,100.97
2019-01-05T08:52:29.594Z,100.74
2019-01-05T08:53:30.171Z,100.83
2019-01-05T08:54:30.855Z,101.15
2019-01-05T08:54:38.903Z,101.49
2019-01-05T08:55:40.689Z,101.48
2019-01-05T08:56:41.582Z,101.55
2019-01-05T08:57:42.060Z,101.81
2019-01-05T08:58:42.948Z,101.49
2019-01-05T08:59:43.649Z,100.95
2019-01-05T09:00:44.304Z,100.88
2019-01-05T09:01:44.926Z,100.94
2019-01-05T09:02:45.400Z,101.30
2019-01-05T09:03:46.119Z,101.56
2019-01-05T09:04:46.740Z,101.68
2019-01-05T09:05:47.164Z,101.38
2019-01-05T09:06:47.718Z,101.59
2019-01-05T09:07:47.792Z,101.74
2019-01-05T09:08:48.330Z,101.92
2019-01-05T09:09:48.846Z,101.93
2019-01-05T09:10:49.284Z,101.92
2019-01-05T09:11:50.071Z,102.17
2019-01-05T09:12:50.571Z,102.43
2019-01-05T09:13:51.039Z,102.35
2019-01-05T09:14:51.641Z,102.27
2019-01-05T09:15:52.188Z,102.54
2019-01-05T09:16:52.770Z,102.60
2019-01-05T09:17:53.200Z,102.12
2019-01-05T09:18:53.883Z,102.11
2019-01-05T09:20:27.087Z,101.10
2019-01-05T09:21:26.736Z,101.10
2019-01-05T09:22:27.272Z,101.18
2019-01-05T09:23:28.139Z,100.95
2019-01-05T09:24:28.889Z,100.49
2019-01-05T09:25:29.502Z,100.74
2019-01-05T09:26:30.224Z,100.45
2019-01-05T09:27:31.021Z,100.00
2019-01-05T09:28:30.977Z,99.95
2019-01-05T09:29:31.766Z,100.00
2019-01-05T09:30:32.388Z,100.54
2019-01-05T09:31:32.935Z,100.64
2019-01-05T09:32:33.496Z,100.89
2019-01-05T09:33:34.014Z,100.99
2019-01-05T09:34:34.634Z,101.18
2019-01-05T09:35:35.133Z,101.31
2019-01-05T09:36:35.820Z,101.43
2019-01-05T09:37:36.589Z,101.55
2019-01-05T09:38:37.205Z,101.69
2019-01-05T09:39:37.729Z,101.89
2019-01-05T09:40:38.418Z,101.67
2019-01-05T09:41:39.344Z,100.94
2019-01-05T09:42:39.864Z,101.31
2019-01-05T09:43:40.569Z,101.38
2019-01-05T09:44:40.671Z,101.45
2019-01-05T09:45:41.440Z,101.67
2019-01-05T09:46:42.254Z,101.56
2019-01-05T09:47:42.175Z,101.67
2019-01-05T09:48:41.699Z,101.06
2019-01-05T09:49:43.275Z,101.12
2019-01-05T09:50:43.720Z,101.35
2019-01-05T09:51:44.190Z,101.54
2019-01-05T09:52:44.649Z,101.61
2019-01-05T09:53:45.096Z,101.56
2019-01-05T09:54:45.549Z,100.86
2019-01-05T09:55:45.130Z,100.85
2019-01-05T09:56:45.954Z,100.52
2019-01-05T09:57:47.562Z,100.53
2019-01-05T09:57:56.496Z,100.32
2019-01-05T09:58:57.330Z,100.34
2019-01-05T09:59:58.203Z,100.10
2019-01-05T10:00:58.885Z,100.49
2019-01-05T10:01:59.759Z,100.93
2019-01-05T10:03:00.253Z,101.01
2019-01-05T10:04:00.954Z,101.04
2019-01-05T10:05:01.424Z,101.31
2019-01-05T10:06:02.124Z,101.38
2019-01-05T10:07:02.575Z,101.42
2019-01-05T10:08:02.988Z,101.77
2019-01-05T10:09:03.533Z,101.53
2019-01-05T10:10:03.741Z,101.49
2019-01-05T10:11:04.153Z,101.00
2019-01-05T10:12:04.796Z,100.98
2019-01-05T10:13:05.821Z,100.90
2019-01-05T10:14:06.606Z,100.95
2019-01-05T10:15:07.093Z,101.13
2019-01-05T10:16:07.676Z,101.18
2019-01-05T10:17:08.080Z,101.13
2019-01-05T10:18:08.758Z,101.15
2019-01-05T10:19:08.985Z,100.99
2019-01-05T10:20:09.673Z,100.86
2019-01-05T10:21:09.838Z,100.75
2019-01-05T10:22:13.221Z,100.77
2019-01-05T10:23:11.230Z,100.88
2019-01-05T10:24:11.840Z,100.79
2019-01-05T10:25:12.697Z,101.14
2019-01-05T10:26:12.626Z,101.49
2019-01-05T10:27:14.040Z,101.72
2019-01-05T10:28:14.511Z,101.94
2019-01-05T10:29:14.955Z,101.42
2019-01-05T10:30:15.518Z,101.43
2019-01-05T10:31:16.063Z,101.05
2019-01-05T10:32:17.060Z,100.70
2019-01-05T10:33:17.579Z,100.44
2019-01-05T10:34:18.197Z,100.34
2019-01-05T10:35:18.791Z,100.36
2019-01-05T10:36:19.339Z,100.34
2019-01-05T10:37:19.846Z,99.38
2019-01-05T10:38:20.504Z,99.79
2019-01-05T10:39:21.079Z,99.25
2019-01-05T10:40:21.742Z,99.44
2019-01-05T10:41:22.333Z,99.12
2019-01-05T10:42:22.808Z,99.25
2019-01-05T10:42:31.160Z,99.55
2019-01-05T10:43:31.896Z,99.57
2019-01-05T10:44:32.387Z,99.71
2019-01-05T10:45:32.942Z,99.69
2019-01-05T10:46:33.475Z,99.41
2019-01-05T10:47:34.121Z,99.56
2019-01-05T10:48:34.772Z,99.22
2019-01-05T10:49:35.302Z,99.00
2019-01-05T10:50:35.803Z,99.27
2019-01-05T10:51:36.662Z,99.27
2019-01-05T10:52:37.146Z,99.09
2019-01-05T10:53:37.649Z,99.34
2019-01-05T10:54:38.264Z,99.69
2019-01-05T10:55:38.724Z,99.20
2019-01-05T10:56:39.243Z,99.30
2019-01-05T10:57:39.985Z,99.45
2019-01-05T10:58:40.707Z,99.55
2019-01-05T10:59:41.226Z,99.45
2019-01-05T11:00:41.802Z,99.37
2019-01-05T11:01:42.026Z,99.51
2019-01-05T11:02:42.899Z,99.58
2019-01-05T11:03:42.761Z,99.70
2019-01-05T11:04:44.243Z,99.90
2019-01-05T11:05:44.702Z,99.52
2019-01-05T11:06:45.465Z,99.46
2019-01-05T11:07:46.324Z,99.56
2019-01-05T11:08:46.921Z,99.30
2019-01-05T11:09:47.423Z,99.82
2019-01-05T11:10:47.956Z,99.96
2019-01-05T11:11:48.532Z,99.44
2019-01-05T11:12:49.411Z,99.13
2019-01-05T11:13:50.073Z,98.96
2019-01-05T11:14:50.594Z,99.50
2019-01-05T11:15:51.165Z,99.71
2019-01-05T11:16:51.591Z,99.75
2019-01-05T11:17:52.013Z,99.35
2019-01-05T11:18:52.451Z,99.40
2019-01-05T11:19:53.087Z,99.41
2019-01-05T11:20:53.743Z,99.60
2019-01-05T11:21:54.169Z,99.19
2019-01-05T11:22:54.708Z,99.48
2019-01-05T11:23:55.317Z,99.65
2019-01-05T11:24:55.726Z,99.39
2019-01-05T11:25:56.185Z,99.68
2019-01-05T11:26:56.461Z,99.73
2019-01-05T11:27:07.531Z,99.70
2019-01-05T11:28:08.705Z,99.70
2019-01-05T11:29:09.049Z,99.39
2019-01-05T11:30:09.410Z,99.57
2019-01-05T11:31:09.666Z,99.34
2019-01-05T11:32:09.845Z,99.59
2019-01-05T11:33:10.060Z,99.63
2019-01-05T11:34:10.266Z,99.47
2019-01-05T11:35:10.469Z,99.37
2019-01-05T11:36:10.859Z,99.24
2019-01-05T11:37:10.070Z,99.15
2019-01-05T11:38:11.441Z,99.20
2019-01-05T11:39:11.584Z,99.71
2019-01-05T11:40:11.856Z,100.17
2019-01-05T11:41:12.047Z,100.04
2019-01-05T11:42:12.372Z,99.83
2019-01-05T11:43:12.580Z,99.96
2019-01-05T11:44:12.889Z,99.77
2019-01-05T11:45:13.136Z,99.76
2019-01-05T11:46:12.318Z,99.95
2019-01-05T11:47:13.598Z,100.20
2019-01-05T11:48:14.002Z,100.50
2019-01-05T11:49:14.217Z,100.58
2019-01-05T11:50:14.479Z,100.43
2019-01-05T11:51:14.717Z,99.94
2019-01-05T11:52:15.112Z,99.82
2019-01-05T11:53:15.523Z,99.65
2019-01-05T11:54:15.907Z,99.56
2019-01-05T11:55:16.236Z,99.69
2019-01-05T11:56:16.516Z,99.44
2019-01-05T11:57:16.875Z,100.00
2019-01-05T11:58:17.262Z,99.69
2019-01-05T11:59:17.466Z,99.74
2019-01-05T12:00:17.975Z,99.74
2019-01-05T12:01:18.290Z,99.83
2019-01-05T12:02:19.779Z,99.90
2019-01-05T12:03:17.917Z,99.36
2019-01-05T12:04:19.316Z,98.84
2019-01-05T12:05:19.648Z,98.86
2019-01-05T12:06:19.898Z,99.06
2019-01-05T12:07:20.226Z,99.27
2019-01-05T12:08:20.534Z,99.54
2019-01-05T12:09:20.811Z,99.56
2019-01-05T12:10:21.313Z,99.93
2019-01-05T12:11:21.664Z,100.44
2019-01-05T12:12:21.958Z,100.48
2019-01-05T12:12:32.051Z,100.21
2019-01-05T12:13:33.392Z,100.22
2019-01-05T12:14:32.868Z,100.25
2019-01-05T12:15:34.412Z,99.81
2019-01-05T12:16:40.660Z,100.08
2019-01-05T12:17:34.019Z,99.79
2019-01-05T12:18:35.270Z,99.94
2019-01-05T12:19:35.515Z,100.01
2019-01-05T12:20:35.884Z,100.10
2019-01-05T12:21:36.289Z,99.97
2019-01-05T12:22:37.528Z,99.85
2019-01-05T12:23:36.853Z,99.69
2019-01-05T12:24:37.153Z,99.34
2019-01-05T12:25:37.812Z,99.52